sensor_id;sensor_type;location;lat;lon;timestamp;pressure;altitude;pressure_sealevel;temperature;humidity
75972;BME280;64651;47.540;19.088;2023-07-31T00:00:00;100096.19;;;20.38;84.72
75972;BME280;64651;47.540;19.088;2023-07-31T00:05:03;100095.97;;;20.31;84.98
75972;BME280;64651;47.540;19.088;2023-07-31T00:10:05;100092.16;;;20.35;84.38
75972;BME280;64651;47.540;19.088;2023-07-31T00:15:08;100096.19;;;20.25;84.54
75972;BME280;64651;47.540;19.088;2023-07-31T00:20:10;100094.37;;;20.17;84.68
75972;BME280;64651;47.540;19.088;2023-07-31T00:25:13;100098.31;;;20.16;84.53
75972;BME280;64651;47.540;19.088;2023-07-31T00:30:15;100101.56;;;20.31;83.60
75972;BME280;64651;47.540;19.088;2023-07-31T00:35:18;100105.16;;;20.19;83.86
75972;BME280;64651;47.540;19.088;2023-07-31T00:40:20;100108.19;;;20.26;83.20
75972;BME280;64651;47.540;19.088;2023-07-31T00:45:23;100113.19;;;20.20;83.48
75972;BME280;64651;47.540;19.088;2023-07-31T00:50:26;100113.78;;;20.26;83.12
75972;BME280;64651;47.540;19.088;2023-07-31T00:55:30;100115.53;;;20.31;82.60
75972;BME280;64651;47.540;19.088;2023-07-31T01:00:32;100114.75;;;20.18;83.25
75972;BME280;64651;47.540;19.088;2023-07-31T01:11:00;100124.84;;;20.10;84.01
75972;BME280;64651;47.540;19.088;2023-07-31T01:16:04;100123.34;;;20.01;84.28
75972;BME280;64651;47.540;19.088;2023-07-31T01:26:38;100121.47;;;19.80;85.41
75972;BME280;64651;47.540;19.088;2023-07-31T01:31:42;100122.28;;;19.57;86.68
75972;BME280;64651;47.540;19.088;2023-07-31T01:36:47;100136.34;;;19.72;85.98
75972;BME280;64651;47.540;19.088;2023-07-31T01:41:50;100137.88;;;19.70;86.19
75972;BME280;64651;47.540;19.088;2023-07-31T01:46:52;100128.22;;;19.67;86.58
75972;BME280;64651;47.540;19.088;2023-07-31T01:51:55;100135.09;;;19.70;86.55
75972;BME280;64651;47.540;19.088;2023-07-31T01:56:57;100139.88;;;19.69;86.91
75972;BME280;64651;47.540;19.088;2023-07-31T02:02:00;100127.06;;;19.68;86.87
75972;BME280;64651;47.540;19.088;2023-07-31T02:07:02;100112.16;;;19.76;86.44
75972;BME280;64651;47.540;19.088;2023-07-31T02:12:05;100110.31;;;19.68;86.46
75972;BME280;64651;47.540;19.088;2023-07-31T02:17:07;100114.00;;;19.48;87.04
75972;BME280;64651;47.540;19.088;2023-07-31T02:22:09;100121.63;;;19.39;87.69
75972;BME280;64651;47.540;19.088;2023-07-31T02:27:12;100114.38;;;19.26;87.66
75972;BME280;64651;47.540;19.088;2023-07-31T02:32:14;100127.81;;;19.12;88.73
75972;BME280;64651;47.540;19.088;2023-07-31T02:37:16;100126.19;;;19.11;88.46
75972;BME280;64651;47.540;19.088;2023-07-31T02:42:18;100130.59;;;19.12;88.22
75972;BME280;64651;47.540;19.088;2023-07-31T02:47:22;100132.84;;;19.18;87.59
75972;BME280;64651;47.540;19.088;2023-07-31T02:52:25;100130.88;;;19.19;87.24
75972;BME280;64651;47.540;19.088;2023-07-31T02:57:27;100125.63;;;19.17;86.75
75972;BME280;64651;47.540;19.088;2023-07-31T03:02:29;100141.56;;;19.29;86.15
75972;BME280;64651;47.540;19.088;2023-07-31T03:07:32;100146.00;;;19.30;85.67
75972;BME280;64651;47.540;19.088;2023-07-31T03:12:34;100143.19;;;19.18;85.68
75972;BME280;64651;47.540;19.088;2023-07-31T03:17:36;100140.34;;;19.38;84.61
75972;BME280;64651;47.540;19.088;2023-07-31T03:22:38;100152.28;;;19.27;84.60
75972;BME280;64651;47.540;19.088;2023-07-31T03:27:43;100153.81;;;19.36;84.19
75972;BME280;64651;47.540;19.088;2023-07-31T03:32:45;100149.31;;;19.44;83.53
75972;BME280;64651;47.540;19.088;2023-07-31T03:37:48;100155.66;;;19.32;84.06
75972;BME280;64651;47.540;19.088;2023-07-31T03:42:50;100164.03;;;19.32;83.83
75972;BME280;64651;47.540;19.088;2023-07-31T03:47:52;100152.75;;;19.29;83.63
75972;BME280;64651;47.540;19.088;2023-07-31T03:52:55;100164.16;;;19.36;83.26
75972;BME280;64651;47.540;19.088;2023-07-31T03:57:57;100173.94;;;19.42;82.82
75972;BME280;64651;47.540;19.088;2023-07-31T04:03:00;100165.28;;;19.56;81.74
75972;BME280;64651;47.540;19.088;2023-07-31T04:08:02;100169.37;;;19.70;81.07
75972;BME280;64651;47.540;19.088;2023-07-31T04:13:07;100173.34;;;19.69;80.71
75972;BME280;64651;47.540;19.088;2023-07-31T04:18:09;100174.97;;;19.70;79.99
75972;BME280;64651;47.540;19.088;2023-07-31T04:23:12;100177.09;;;19.73;79.85
75972;BME280;64651;47.540;19.088;2023-07-31T04:28:14;100173.97;;;19.87;79.27
75972;BME280;64651;47.540;19.088;2023-07-31T04:33:18;100179.63;;;19.78;79.06
75972;BME280;64651;47.540;19.088;2023-07-31T04:38:21;100176.16;;;19.69;78.71
75972;BME280;64651;47.540;19.088;2023-07-31T04:43:23;100168.63;;;19.82;77.93
75972;BME280;64651;47.540;19.088;2023-07-31T04:48:25;100175.13;;;19.86;77.96
75972;BME280;64651;47.540;19.088;2023-07-31T04:53:28;100166.41;;;20.00;77.14
75972;BME280;64651;47.540;19.088;2023-07-31T04:58:30;100172.00;;;20.12;76.49
75972;BME280;64651;47.540;19.088;2023-07-31T05:03:33;100178.41;;;20.12;75.70
75972;BME280;64651;47.540;19.088;2023-07-31T05:08:35;100187.38;;;20.18;74.45
75972;BME280;64651;47.540;19.088;2023-07-31T05:13:37;100180.84;;;20.38;73.86
75972;BME280;64651;47.540;19.088;2023-07-31T05:18:40;100193.56;;;20.48;72.15
75972;BME280;64651;47.540;19.088;2023-07-31T05:23:42;100196.34;;;20.48;71.48
75972;BME280;64651;47.540;19.088;2023-07-31T05:28:44;100185.87;;;20.45;70.00
75972;BME280;64651;47.540;19.088;2023-07-31T05:33:47;100195.38;;;20.32;69.67
75972;BME280;64651;47.540;19.088;2023-07-31T05:38:49;100198.06;;;20.28;69.12
75972;BME280;64651;47.540;19.088;2023-07-31T05:43:57;100190.31;;;20.34;67.77
75972;BME280;64651;47.540;19.088;2023-07-31T05:49:01;100209.75;;;20.54;66.57
75972;BME280;64651;47.540;19.088;2023-07-31T05:54:04;100199.38;;;20.67;64.77
75972;BME280;64651;47.540;19.088;2023-07-31T05:59:06;100209.97;;;20.74;64.28
75972;BME280;64651;47.540;19.088;2023-07-31T06:04:09;100215.97;;;20.88;62.92
75972;BME280;64651;47.540;19.088;2023-07-31T06:09:12;100218.28;;;20.98;62.40
75972;BME280;64651;47.540;19.088;2023-07-31T06:14:14;100217.66;;;21.04;62.51
75972;BME280;64651;47.540;19.088;2023-07-31T06:19:16;100221.34;;;21.33;61.00
75972;BME280;64651;47.540;19.088;2023-07-31T06:24:18;100220.66;;;21.24;60.45
75972;BME280;64651;47.540;19.088;2023-07-31T06:29:22;100228.16;;;21.75;59.56
75972;BME280;64651;47.540;19.088;2023-07-31T06:34:26;100223.63;;;21.71;58.50
75972;BME280;64651;47.540;19.088;2023-07-31T06:39:28;100214.22;;;22.57;56.77
75972;BME280;64651;47.540;19.088;2023-07-31T06:44:30;100206.09;;;22.68;56.02
75972;BME280;64651;47.540;19.088;2023-07-31T06:49:33;100214.84;;;23.17;55.25
75972;BME280;64651;47.540;19.088;2023-07-31T06:54:42;100211.97;;;22.63;55.72
75972;BME280;64651;47.540;19.088;2023-07-31T06:59:44;100218.03;;;22.65;55.96
75972;BME280;64651;47.540;19.088;2023-07-31T07:04:47;100212.88;;;22.67;55.83
75972;BME280;64651;47.540;19.088;2023-07-31T07:09:49;100220.22;;;22.56;56.14
75972;BME280;64651;47.540;19.088;2023-07-31T07:14:51;100221.28;;;22.67;56.56
75972;BME280;64651;47.540;19.088;2023-07-31T07:19:54;100230.00;;;22.46;56.75
75972;BME280;64651;47.540;19.088;2023-07-31T07:24:57;100229.19;;;22.61;56.10
75972;BME280;64651;47.540;19.088;2023-07-31T07:30:00;100237.34;;;23.21;54.75
75972;BME280;64651;47.540;19.088;2023-07-31T07:35:04;100230.00;;;23.51;53.84
75972;BME280;64651;47.540;19.088;2023-07-31T07:40:07;100233.37;;;23.22;53.87
75972;BME280;64651;47.540;19.088;2023-07-31T07:45:09;100238.47;;;23.16;53.04
75972;BME280;64651;47.540;19.088;2023-07-31T07:50:12;100235.06;;;24.07;50.54
75972;BME280;64651;47.540;19.088;2023-07-31T07:55:15;100228.06;;;23.55;50.60
75972;BME280;64651;47.540;19.088;2023-07-31T08:00:17;100223.59;;;23.73;49.07
75972;BME280;64651;47.540;19.088;2023-07-31T08:05:20;100226.91;;;24.70;47.75
75972;BME280;64651;47.540;19.088;2023-07-31T08:10:22;100224.91;;;24.21;47.16
75972;BME280;64651;47.540;19.088;2023-07-31T08:15:25;100223.53;;;25.14;43.72
75972;BME280;64651;47.540;19.088;2023-07-31T08:20:27;100219.72;;;26.94;40.40
75972;BME280;64651;47.540;19.088;2023-07-31T08:25:29;100215.50;;;27.32;38.16
75972;BME280;64651;47.540;19.088;2023-07-31T08:30:32;100212.84;;;29.06;35.95
75972;BME280;64651;47.540;19.088;2023-07-31T08:35:38;100203.06;;;29.25;33.92
75972;BME280;64651;47.540;19.088;2023-07-31T08:40:40;100195.50;;;28.90;33.88
75972;BME280;64651;47.540;19.088;2023-07-31T08:45:42;100201.56;;;29.86;33.31
75972;BME280;64651;47.540;19.088;2023-07-31T08:50:46;100208.59;;;31.12;32.20
75972;BME280;64651;47.540;19.088;2023-07-31T08:55:49;100198.47;;;31.11;31.30
75972;BME280;64651;47.540;19.088;2023-07-31T09:00:52;100197.81;;;32.68;29.53
75972;BME280;64651;47.540;19.088;2023-07-31T09:05:56;100188.81;;;32.22;29.12
75972;BME280;64651;47.540;19.088;2023-07-31T09:11:01;100205.59;;;31.87;29.85
75972;BME280;64651;47.540;19.088;2023-07-31T09:16:05;100193.78;;;30.52;30.51
75972;BME280;64651;47.540;19.088;2023-07-31T09:21:07;100196.31;;;31.52;29.58
75972;BME280;64651;47.540;19.088;2023-07-31T09:26:10;100191.91;;;31.78;29.63
75972;BME280;64651;47.540;19.088;2023-07-31T09:31:12;100179.00;;;31.09;30.72
75972;BME280;64651;47.540;19.088;2023-07-31T09:36:14;100194.88;;;30.62;30.91
75972;BME280;64651;47.540;19.088;2023-07-31T09:41:17;100189.06;;;31.78;29.96
75972;BME280;64651;47.540;19.088;2023-07-31T09:46:20;100183.47;;;31.10;30.71
75972;BME280;64651;47.540;19.088;2023-07-31T09:51:28;100172.00;;;30.80;30.00
75972;BME280;64651;47.540;19.088;2023-07-31T09:56:33;100171.44;;;31.60;29.21
75972;BME280;64651;47.540;19.088;2023-07-31T10:01:36;100167.25;;;33.11;27.90
75972;BME280;64651;47.540;19.088;2023-07-31T10:06:40;100162.53;;;33.01;27.41
75972;BME280;64651;47.540;19.088;2023-07-31T10:11:46;100167.41;;;32.11;28.57
75972;BME280;64651;47.540;19.088;2023-07-31T10:16:53;100168.78;;;31.46;28.46
75972;BME280;64651;47.540;19.088;2023-07-31T10:21:56;100167.88;;;32.33;27.36
75972;BME280;64651;47.540;19.088;2023-07-31T10:27:01;100164.22;;;32.79;27.46
75972;BME280;64651;47.540;19.088;2023-07-31T10:32:05;100149.13;;;33.57;26.02
75972;BME280;64651;47.540;19.088;2023-07-31T10:37:28;100164.72;;;33.53;26.54
75972;BME280;64651;47.540;19.088;2023-07-31T10:42:48;100152.87;;;32.52;27.82
75972;BME280;64651;47.540;19.088;2023-07-31T10:47:58;100160.28;;;32.92;27.83
75972;BME280;64651;47.540;19.088;2023-07-31T10:53:02;100149.16;;;33.37;26.62
75972;BME280;64651;47.540;19.088;2023-07-31T10:58:13;100133.91;;;35.60;24.69
75972;BME280;64651;47.540;19.088;2023-07-31T11:03:17;100151.91;;;34.45;25.64
75972;BME280;64651;47.540;19.088;2023-07-31T11:13:34;100133.06;;;34.15;25.55
75972;BME280;64651;47.540;19.088;2023-07-31T11:18:43;100129.88;;;32.86;26.95
75972;BME280;64651;47.540;19.088;2023-07-31T11:23:47;100104.69;;;34.98;24.08
75972;BME280;64651;47.540;19.088;2023-07-31T11:28:50;100106.19;;;35.83;23.39
75972;BME280;64651;47.540;19.088;2023-07-31T11:34:04;100100.34;;;34.94;23.49
75972;BME280;64651;47.540;19.088;2023-07-31T11:39:10;100107.75;;;37.65;21.39
75972;BME280;64651;47.540;19.088;2023-07-31T11:44:13;100094.41;;;35.68;22.85
75972;BME280;64651;47.540;19.088;2023-07-31T11:49:29;100090.78;;;37.58;20.89
75972;BME280;64651;47.540;19.088;2023-07-31T11:54:31;100096.09;;;36.16;22.22
75972;BME280;64651;47.540;19.088;2023-07-31T11:59:34;100095.34;;;36.37;22.13
75972;BME280;64651;47.540;19.088;2023-07-31T12:04:36;100090.34;;;36.85;21.96
75972;BME280;64651;47.540;19.088;2023-07-31T12:09:39;100083.72;;;37.50;21.28
75972;BME280;64651;47.540;19.088;2023-07-31T12:14:52;100072.31;;;39.59;19.66
75972;BME280;64651;47.540;19.088;2023-07-31T12:19:54;100054.69;;;39.66;19.52
75972;BME280;64651;47.540;19.088;2023-07-31T12:24:57;100065.69;;;36.18;22.18
75972;BME280;64651;47.540;19.088;2023-07-31T12:30:00;100056.84;;;38.33;20.20
75972;BME280;64651;47.540;19.088;2023-07-31T12:35:06;100060.09;;;37.86;20.32
75972;BME280;64651;47.540;19.088;2023-07-31T12:40:09;100048.78;;;38.00;20.49
75972;BME280;64651;47.540;19.088;2023-07-31T12:45:11;100045.34;;;38.33;20.11
75972;BME280;64651;47.540;19.088;2023-07-31T12:50:13;100044.25;;;37.01;21.67
75972;BME280;64651;47.540;19.088;2023-07-31T12:55:15;100031.41;;;37.15;21.91
75972;BME280;64651;47.540;19.088;2023-07-31T13:00:18;100020.16;;;37.29;21.31
75972;BME280;64651;47.540;19.088;2023-07-31T13:05:21;100028.13;;;37.25;21.39
75972;BME280;64651;47.540;19.088;2023-07-31T13:10:23;100015.03;;;35.18;23.48
75972;BME280;64651;47.540;19.088;2023-07-31T13:15:26;100017.91;;;36.15;22.23
75972;BME280;64651;47.540;19.088;2023-07-31T13:20:28;100016.59;;;35.95;22.42
75972;BME280;64651;47.540;19.088;2023-07-31T13:25:30;100006.91;;;37.23;20.98
75972;BME280;64651;47.540;19.088;2023-07-31T13:30:33;100005.81;;;37.29;21.48
75972;BME280;64651;47.540;19.088;2023-07-31T13:35:35;99994.91;;;37.15;21.19
75972;BME280;64651;47.540;19.088;2023-07-31T13:40:37;99996.19;;;35.93;22.59
75972;BME280;64651;47.540;19.088;2023-07-31T13:45:39;99993.91;;;38.07;20.93
75972;BME280;64651;47.540;19.088;2023-07-31T13:50:42;99987.91;;;35.60;22.73
75972;BME280;64651;47.540;19.088;2023-07-31T13:55:44;99982.12;;;34.14;24.23
75972;BME280;64651;47.540;19.088;2023-07-31T14:00:47;99987.47;;;34.57;23.36
75972;BME280;64651;47.540;19.088;2023-07-31T14:05:51;99984.94;;;35.38;23.06
75972;BME280;64651;47.540;19.088;2023-07-31T14:10:54;99967.53;;;35.46;22.69
75972;BME280;64651;47.540;19.088;2023-07-31T14:15:56;99970.47;;;33.92;24.36
75972;BME280;64651;47.540;19.088;2023-07-31T14:20:58;99979.00;;;33.47;25.29
75972;BME280;64651;47.540;19.088;2023-07-31T14:26:01;99974.69;;;31.38;27.75
75972;BME280;64651;47.540;19.088;2023-07-31T14:31:04;99965.91;;;30.98;28.47
75972;BME280;64651;47.540;19.088;2023-07-31T14:36:15;99962.37;;;31.21;28.58
75972;BME280;64651;47.540;19.088;2023-07-31T14:41:17;99961.78;;;31.57;28.26
75972;BME280;64651;47.540;19.088;2023-07-31T14:46:20;99957.88;;;34.35;24.95
75972;BME280;64651;47.540;19.088;2023-07-31T14:51:22;99948.97;;;34.74;24.02
75972;BME280;64651;47.540;19.088;2023-07-31T14:56:24;99937.84;;;34.22;24.31
75972;BME280;64651;47.540;19.088;2023-07-31T15:01:30;99948.97;;;32.90;25.97
75972;BME280;64651;47.540;19.088;2023-07-31T15:06:32;99950.94;;;32.93;25.77
75972;BME280;64651;47.540;19.088;2023-07-31T15:11:34;99921.00;;;34.11;24.76
75972;BME280;64651;47.540;19.088;2023-07-31T15:16:36;99928.47;;;32.59;26.10
75972;BME280;64651;47.540;19.088;2023-07-31T15:21:39;99930.59;;;33.27;25.48
75972;BME280;64651;47.540;19.088;2023-07-31T15:26:42;99929.38;;;32.56;26.29
75972;BME280;64651;47.540;19.088;2023-07-31T15:31:45;99935.13;;;31.47;27.61
75972;BME280;64651;47.540;19.088;2023-07-31T15:36:48;99927.16;;;32.05;27.01
75972;BME280;64651;47.540;19.088;2023-07-31T15:41:50;99912.19;;;32.96;26.11
75972;BME280;64651;47.540;19.088;2023-07-31T15:46:52;99911.69;;;32.06;26.72
75972;BME280;64651;47.540;19.088;2023-07-31T15:51:55;99909.53;;;33.05;25.42
75972;BME280;64651;47.540;19.088;2023-07-31T15:56:57;99902.16;;;31.50;27.37
75972;BME280;64651;47.540;19.088;2023-07-31T16:01:59;99894.22;;;32.04;26.91
75972;BME280;64651;47.540;19.088;2023-07-31T16:07:02;99898.78;;;31.35;27.58
75972;BME280;64651;47.540;19.088;2023-07-31T16:12:04;99895.53;;;31.79;26.90
75972;BME280;64651;47.540;19.088;2023-07-31T16:17:09;99891.69;;;30.96;27.67
75972;BME280;64651;47.540;19.088;2023-07-31T16:22:11;99882.25;;;30.46;28.39
75972;BME280;64651;47.540;19.088;2023-07-31T16:27:13;99896.09;;;29.76;29.70
75972;BME280;64651;47.540;19.088;2023-07-31T16:32:15;99890.59;;;30.30;29.22
75972;BME280;64651;47.540;19.088;2023-07-31T16:37:18;99890.97;;;30.62;28.92
75972;BME280;64651;47.540;19.088;2023-07-31T16:42:21;99894.97;;;30.04;29.57
75972;BME280;64651;47.540;19.088;2023-07-31T16:47:24;99887.19;;;28.81;31.37
75972;BME280;64651;47.540;19.088;2023-07-31T16:52:26;99894.56;;;27.56;33.60
75972;BME280;64651;47.540;19.088;2023-07-31T16:57:29;99901.44;;;27.16;34.33
75972;BME280;64651;47.540;19.088;2023-07-31T17:02:32;99899.75;;;26.73;34.85
75972;BME280;64651;47.540;19.088;2023-07-31T17:07:34;99904.09;;;26.31;35.45
75972;BME280;64651;47.540;19.088;2023-07-31T17:12:36;99903.28;;;26.31;35.52
75972;BME280;64651;47.540;19.088;2023-07-31T17:17:39;99900.56;;;26.84;34.99
75972;BME280;64651;47.540;19.088;2023-07-31T17:22:41;99915.84;;;26.51;35.64
75972;BME280;64651;47.540;19.088;2023-07-31T17:27:50;99909.87;;;26.91;35.30
75972;BME280;64651;47.540;19.088;2023-07-31T17:32:54;99911.13;;;27.29;34.48
75972;BME280;64651;47.540;19.088;2023-07-31T17:37:56;99920.00;;;27.17;35.11
75972;BME280;64651;47.540;19.088;2023-07-31T17:43:00;99908.28;;;27.22;35.35
75972;BME280;64651;47.540;19.088;2023-07-31T17:48:02;99926.44;;;26.96;35.76
75972;BME280;64651;47.540;19.088;2023-07-31T17:53:04;99921.16;;;26.81;35.90
75972;BME280;64651;47.540;19.088;2023-07-31T17:58:08;99923.88;;;26.49;36.54
75972;BME280;64651;47.540;19.088;2023-07-31T18:03:11;99917.63;;;26.01;37.79
75972;BME280;64651;47.540;19.088;2023-07-31T18:08:15;99912.56;;;25.59;38.27
75972;BME280;64651;47.540;19.088;2023-07-31T18:13:17;99913.75;;;25.10;39.12
75972;BME280;64651;47.540;19.088;2023-07-31T18:18:19;99929.94;;;24.80;40.07
75972;BME280;64651;47.540;19.088;2023-07-31T18:23:22;99921.62;;;24.53;40.68
75972;BME280;64651;47.540;19.088;2023-07-31T18:28:24;99927.00;;;24.32;41.38
75972;BME280;64651;47.540;19.088;2023-07-31T18:33:27;99932.94;;;23.97;42.40
75972;BME280;64651;47.540;19.088;2023-07-31T18:38:29;99945.84;;;23.72;42.98
75972;BME280;64651;47.540;19.088;2023-07-31T18:43:34;99940.16;;;23.42;44.09
75972;BME280;64651;47.540;19.088;2023-07-31T18:48:37;99945.13;;;23.52;43.39
75972;BME280;64651;47.540;19.088;2023-07-31T18:53:40;99948.94;;;23.40;43.86
75972;BME280;64651;47.540;19.088;2023-07-31T18:58:42;99949.63;;;23.34;43.82
75972;BME280;64651;47.540;19.088;2023-07-31T19:03:44;99941.53;;;23.29;44.43
75972;BME280;64651;47.540;19.088;2023-07-31T19:08:46;99952.00;;;23.32;43.65
75972;BME280;64651;47.540;19.088;2023-07-31T19:13:49;99961.50;;;23.01;45.48
75972;BME280;64651;47.540;19.088;2023-07-31T19:18:52;99962.94;;;22.91;45.41
75972;BME280;64651;47.540;19.088;2023-07-31T19:23:55;99958.44;;;22.67;45.90
75972;BME280;64651;47.540;19.088;2023-07-31T19:28:58;99959.12;;;22.61;46.24
75972;BME280;64651;47.540;19.088;2023-07-31T19:34:00;99960.59;;;22.55;46.72
75972;BME280;64651;47.540;19.088;2023-07-31T19:39:03;99952.56;;;22.53;46.80
75972;BME280;64651;47.540;19.088;2023-07-31T19:44:05;99966.28;;;22.39;47.37
75972;BME280;64651;47.540;19.088;2023-07-31T19:49:08;99971.59;;;22.25;49.07
75972;BME280;64651;47.540;19.088;2023-07-31T19:54:10;99975.22;;;22.06;49.66
75972;BME280;64651;47.540;19.088;2023-07-31T19:59:12;99975.84;;;22.00;49.98
75972;BME280;64651;47.540;19.088;2023-07-31T20:04:15;99961.41;;;21.98;50.09
75972;BME280;64651;47.540;19.088;2023-07-31T20:09:17;99966.00;;;21.90;49.75
75972;BME280;64651;47.540;19.088;2023-07-31T20:14:19;99973.50;;;21.86;50.54
75972;BME280;64651;47.540;19.088;2023-07-31T20:19:22;99965.84;;;21.83;50.27
75972;BME280;64651;47.540;19.088;2023-07-31T20:24:24;99964.47;;;21.58;52.16
75972;BME280;64651;47.540;19.088;2023-07-31T20:29:26;99964.88;;;21.60;51.66
75972;BME280;64651;47.540;19.088;2023-07-31T20:34:29;99958.97;;;21.30;53.93
75972;BME280;64651;47.540;19.088;2023-07-31T20:39:34;99962.56;;;21.15;54.39
75972;BME280;64651;47.540;19.088;2023-07-31T20:44:36;99960.47;;;20.96;55.47
75972;BME280;64651;47.540;19.088;2023-07-31T20:49:38;99957.66;;;20.80;56.23
75972;BME280;64651;47.540;19.088;2023-07-31T20:54:40;99950.47;;;20.79;56.21
75972;BME280;64651;47.540;19.088;2023-07-31T20:59:43;99960.16;;;20.70;57.22
75972;BME280;64651;47.540;19.088;2023-07-31T21:04:45;99952.50;;;20.67;56.84
75972;BME280;64651;47.540;19.088;2023-07-31T21:09:49;99944.31;;;20.74;56.39
75972;BME280;64651;47.540;19.088;2023-07-31T21:14:51;99939.91;;;20.73;56.35
75972;BME280;64651;47.540;19.088;2023-07-31T21:19:54;99925.66;;;20.78;56.59
75972;BME280;64651;47.540;19.088;2023-07-31T21:24:57;99934.53;;;20.67;57.82
75972;BME280;64651;47.540;19.088;2023-07-31T21:30:00;99941.00;;;20.56;57.90
75972;BME280;64651;47.540;19.088;2023-07-31T21:35:02;99934.44;;;20.48;58.60
75972;BME280;64651;47.540;19.088;2023-07-31T21:40:06;99931.44;;;20.41;58.28
75972;BME280;64651;47.540;19.088;2023-07-31T21:45:09;99936.81;;;20.34;58.46
75972;BME280;64651;47.540;19.088;2023-07-31T21:50:11;99938.56;;;20.26;58.86
75972;BME280;64651;47.540;19.088;2023-07-31T21:55:14;99928.53;;;20.38;57.67
75972;BME280;64651;47.540;19.088;2023-07-31T22:00:18;99928.44;;;20.34;59.50
75972;BME280;64651;47.540;19.088;2023-07-31T22:05:21;99936.25;;;20.29;58.91
75972;BME280;64651;47.540;19.088;2023-07-31T22:10:29;99924.03;;;20.21;59.08
75972;BME280;64651;47.540;19.088;2023-07-31T22:15:31;99918.19;;;20.26;58.99
75972;BME280;64651;47.540;19.088;2023-07-31T22:20:34;99917.63;;;20.20;59.32
75972;BME280;64651;47.540;19.088;2023-07-31T22:25:36;99910.25;;;20.12;58.98
75972;BME280;64651;47.540;19.088;2023-07-31T22:30:38;99911.97;;;20.17;58.88
75972;BME280;64651;47.540;19.088;2023-07-31T22:35:41;99901.75;;;20.09;58.61
75972;BME280;64651;47.540;19.088;2023-07-31T22:40:43;99895.59;;;20.03;58.68
75972;BME280;64651;47.540;19.088;2023-07-31T22:45:46;99898.03;;;20.05;59.35
75972;BME280;64651;47.540;19.088;2023-07-31T22:50:48;99890.62;;;19.97;60.44
75972;BME280;64651;47.540;19.088;2023-07-31T22:55:50;99903.38;;;19.82;61.75
75972;BME280;64651;47.540;19.088;2023-07-31T23:01:04;99902.81;;;19.64;62.13
75972;BME280;64651;47.540;19.088;2023-07-31T23:06:07;99895.63;;;19.63;62.09
75972;BME280;64651;47.540;19.088;2023-07-31T23:11:09;99899.09;;;19.60;62.03
75972;BME280;64651;47.540;19.088;2023-07-31T23:16:13;99887.63;;;19.50;62.53
75972;BME280;64651;47.540;19.088;2023-07-31T23:21:16;99888.41;;;19.38;62.93
75972;BME280;64651;47.540;19.088;2023-07-31T23:26:18;99887.69;;;19.41;63.49
75972;BME280;64651;47.540;19.088;2023-07-31T23:31:20;99882.13;;;19.29;62.99
75972;BME280;64651;47.540;19.088;2023-07-31T23:36:24;99869.94;;;19.21;63.42
75972;BME280;64651;47.540;19.088;2023-07-31T23:41:26;99852.19;;;19.14;64.49
75972;BME280;64651;47.540;19.088;2023-07-31T23:46:28;99848.34;;;19.06;65.71
75972;BME280;64651;47.540;19.088;2023-07-31T23:51:31;99849.28;;;18.98;66.97
75972;BME280;64651;47.540;19.088;2023-07-31T23:56:41;99842.44;;;18.95;66.68
